Portada
METAR-TAF:

METAR-TAF

Aeropuertos :

Aeropuerto Internacional de Zanzíbar

Zanzíbar, Tanzania

latitud: 06-13S, longitud: 039-13E, altitud: 15 m

Observación

El informe se hizo hace 26 minutos, a las 10:00 UTC
Viento 10 kt del sur
Temperatura 30°C
Humedad 70%
Presión 1015 hPa
Visibilidad 10 km o más
Nubes dispersas a una altura de 2000 ft
Cielo nuboso a una altura de 8000 ft

METAR: HTZA 251000Z 17010KT 9999 SCT020 BKN080 30/24 Q1015 NOSIG

Hora: 13:26 (10:26 UTC)

Pronóstico

El informe se hizo hace 5 horas y 26 minutos, a las 05:00 UTC
Pronóstico válido del 25 a las 06 UTC al 26 a las 06 UTC
Viento 10 kt del suroeste
Visibilidad 10 km o más
Cielo nuboso a una altura de 1800 ft
Evolucionando progresivamente
del 25 a las 10 UTC al 25 a las 12 UTC
Viento 10 kt del sur-sureste
Nubes dispersas a una altura de 2000 ft
Nubes dispersas a una altura de 8000 ft

TAF: HTZA 250500Z 2506/2606 22010KT 9999 BKN018 BECMG 2510/2512 16010KT SCT020 SCT080

Observaciones y pronósticos meteorológicos de más de 4000 aeropuertos (mensajes METAR y TAF).

Los puntos amarillos y rojos representan las estaciones disponibles.

Ponga el ratón en el punto deseado para ver el nombre de la estación.

Haga clic para ver las observaciones y los pronósticos meteorológicos.

Para cambiar el mapa : haga clic en los botones verdes con una cruz de color negro para hacer un zoom, en el botón verde con un guión para alejar o en las flechas verdes para mapas adyacentes.


METAR-TAF: